createdAt,value
2018-05-10T00:00:43.855Z,10.52
2018-05-10T00:03:11.343Z,10.50
2018-05-10T00:05:39.679Z,10.48
2018-05-10T00:08:12.465Z,10.46
2018-05-10T00:10:41.220Z,10.44
2018-05-10T00:13:08.733Z,10.42
2018-05-10T00:15:36.233Z,10.41
2018-05-10T00:18:03.729Z,10.39
2018-05-10T00:20:31.204Z,10.39
2018-05-10T00:22:59.815Z,10.39
2018-05-10T00:25:32.050Z,10.38
2018-05-10T00:28:01.250Z,10.39
2018-05-10T00:30:29.233Z,10.38
2018-05-10T00:32:56.712Z,10.38
2018-05-10T00:35:24.233Z,10.39
2018-05-10T00:37:51.726Z,10.38
2018-05-10T00:40:19.357Z,10.40
2018-05-10T00:42:49.323Z,10.41
2018-05-10T00:45:16.826Z,10.41
2018-05-10T00:47:45.465Z,10.42
2018-05-10T00:50:12.974Z,10.42
2018-05-10T00:52:40.494Z,10.41
2018-05-10T00:55:07.992Z,10.41
2018-05-10T00:57:35.567Z,10.41
2018-05-10T01:00:04.323Z,10.41
2018-05-10T01:02:33.109Z,10.41
2018-05-10T01:05:00.848Z,10.41
2018-05-10T01:07:28.354Z,10.41
2018-05-10T01:09:55.858Z,10.40
2018-05-10T01:12:23.369Z,10.39
2018-05-10T01:14:51.595Z,10.39
2018-05-10T01:17:21.231Z,10.38
2018-05-10T01:19:49.424Z,10.37
2018-05-10T01:22:16.918Z,10.37
2018-05-10T01:24:44.422Z,10.36
2018-05-10T01:27:11.914Z,10.35
2018-05-10T01:29:39.425Z,10.35
2018-05-10T01:32:07.493Z,10.31
2018-05-10T01:34:35.533Z,10.31
2018-05-10T01:37:05.422Z,10.29
2018-05-10T01:39:32.924Z,10.28
2018-05-10T01:42:00.414Z,10.27
2018-05-10T01:44:27.908Z,10.27
2018-05-10T01:46:55.417Z,10.27
2018-05-10T01:49:25.261Z,10.26
2018-05-10T01:51:55.330Z,10.25
2018-05-10T01:54:25.347Z,10.24
2018-05-10T01:56:52.919Z,10.23
2018-05-10T01:59:20.398Z,10.22
2018-05-10T02:01:47.885Z,10.20
2018-05-10T02:04:15.396Z,10.19
2018-05-10T02:06:42.924Z,10.16
2018-05-10T02:09:11.557Z,10.14
2018-05-10T02:11:40.171Z,10.13
2018-05-10T02:14:12.496Z,10.09
2018-05-10T02:16:39.990Z,10.08
2018-05-10T02:19:07.501Z,10.08
2018-05-10T02:21:34.974Z,10.07
2018-05-10T02:24:02.503Z,10.05
2018-05-10T02:26:30.198Z,10.04
2018-05-10T02:29:00.271Z,10.03
2018-05-10T02:31:32.607Z,10.01
2018-05-10T02:34:00.098Z,10.00
2018-05-10T02:36:27.699Z,9.99
2018-05-10T02:38:55.122Z,9.99
2018-05-10T02:41:22.656Z,9.98
2018-05-10T02:43:52.141Z,9.97
2018-05-10T02:46:20.609Z,9.97
2018-05-10T02:48:49.201Z,9.97
2018-05-10T02:51:16.714Z,9.96
2018-05-10T02:53:44.208Z,9.96
2018-05-10T02:56:11.685Z,9.97
2018-05-10T02:58:39.237Z,9.99
2018-05-10T03:01:09.166Z,9.99
2018-05-10T03:03:38.277Z,9.99
2018-05-10T03:06:07.556Z,10.01
2018-05-10T03:08:35.090Z,10.00
2018-05-10T03:11:02.606Z,10.00
2018-05-10T03:13:30.109Z,9.99
2018-05-10T03:15:57.617Z,9.97
2018-05-10T03:18:25.151Z,9.96
2018-05-10T03:20:52.985Z,9.96
2018-05-10T03:23:21.616Z,9.96
2018-05-10T03:25:50.562Z,9.94
2018-05-10T03:28:18.063Z,9.92
2018-05-10T03:30:45.558Z,9.90
2018-05-10T03:33:13.056Z,9.89
2018-05-10T03:35:41.509Z,9.86
2018-05-10T03:38:08.982Z,9.86
2018-05-10T03:40:40.275Z,9.86
2018-05-10T03:43:07.744Z,9.87
2018-05-10T03:45:35.241Z,9.88
2018-05-10T03:48:02.721Z,9.89
2018-05-10T03:50:30.217Z,9.91
2018-05-10T03:52:59.437Z,9.93
2018-05-10T03:55:29.274Z,9.94
2018-05-10T03:57:56.832Z,9.94
2018-05-10T04:00:24.305Z,9.96
2018-05-10T04:06:15.332Z,9.97
2018-05-10T04:08:57.305Z,9.96
2018-05-10T04:11:29.307Z,9.96
2018-05-10T04:13:57.180Z,9.95
2018-05-10T04:16:24.682Z,9.95
2018-05-10T04:18:52.160Z,9.94
2018-05-10T04:21:19.667Z,9.94
2018-05-10T04:23:47.158Z,9.93
2018-05-10T04:26:16.291Z,9.91
2018-05-10T04:28:44.697Z,9.91
2018-05-10T04:31:13.397Z,9.89
2018-05-10T04:33:40.915Z,9.87
2018-05-10T04:36:08.417Z,9.85
2018-05-10T04:38:35.949Z,9.82
2018-05-10T04:41:03.421Z,9.81
2018-05-10T04:43:32.090Z,9.80
2018-05-10T04:46:00.769Z,9.78
2018-05-10T04:48:33.440Z,9.76
2018-05-10T04:51:00.967Z,9.74
2018-05-10T04:53:28.453Z,9.74
2018-05-10T04:55:55.967Z,9.73
2018-05-10T04:58:23.477Z,9.72
2018-05-10T05:00:51.581Z,9.71
2018-05-10T05:03:24.281Z,9.71
2018-05-10T05:05:52.770Z,9.70
2018-05-10T05:08:20.929Z,9.70
2018-05-10T05:10:48.447Z,9.70
2018-05-10T05:13:15.953Z,9.70
2018-05-10T05:15:43.436Z,9.70
2018-05-10T05:18:13.523Z,9.71
2018-05-10T05:20:41.057Z,9.72
2018-05-10T05:23:09.373Z,9.74
2018-05-10T05:25:37.614Z,9.76
2018-05-10T05:28:06.346Z,9.78
2018-05-10T05:30:33.816Z,9.78
2018-05-10T05:33:01.312Z,9.81
2018-05-10T05:35:29.649Z,9.82
2018-05-10T05:37:59.790Z,9.84
2018-05-10T05:40:28.866Z,9.88
2018-05-10T05:42:57.634Z,9.92
2018-05-10T05:45:26.352Z,9.94
2018-05-10T05:47:53.860Z,9.95
2018-05-10T05:50:21.350Z,9.97
2018-05-10T05:52:49.590Z,9.99
2018-05-10T05:55:17.118Z,10.01
2018-05-10T05:57:45.584Z,10.02
2018-05-10T06:00:13.161Z,10.04
2018-05-10T06:02:40.665Z,10.06
2018-05-10T06:05:08.158Z,10.08
2018-05-10T06:07:35.797Z,10.09
2018-05-10T06:10:05.409Z,10.10
2018-05-10T06:12:33.450Z,10.10
2018-05-10T06:15:01.009Z,10.11
2018-05-10T06:17:31.472Z,10.13
2018-05-10T06:19:58.967Z,10.14
2018-05-10T06:22:26.470Z,10.17
2018-05-10T06:24:54.062Z,10.21
2018-05-10T06:27:21.515Z,10.25
2018-05-10T06:29:51.770Z,10.27
2018-05-10T06:32:20.184Z,10.31
2018-05-10T06:34:49.090Z,10.35
2018-05-10T06:37:16.609Z,10.38
2018-05-10T06:39:44.116Z,10.41
2018-05-10T06:42:11.641Z,10.43
2018-05-10T06:44:41.492Z,10.46
2018-05-10T06:47:09.022Z,10.49
2018-05-10T06:49:37.324Z,10.51
2018-05-10T06:52:04.987Z,10.55
2018-05-10T06:54:32.547Z,10.58
2018-05-10T06:57:00.010Z,10.63
2018-05-10T06:59:27.498Z,10.67
2018-05-10T07:01:57.395Z,10.71
2018-05-10T07:04:27.424Z,10.74
2018-05-10T07:06:57.466Z,10.80
2018-05-10T07:09:25.051Z,10.87
2018-05-10T07:11:52.517Z,10.94
2018-05-10T07:14:20.026Z,11.01
2018-05-10T07:16:47.546Z,11.08
2018-05-10T07:19:15.946Z,11.14
2018-05-10T07:21:47.790Z,11.16
2018-05-10T07:24:16.939Z,11.18
2018-05-10T07:26:45.174Z,11.18
2018-05-10T07:29:12.653Z,11.16
2018-05-10T07:31:40.176Z,11.17
2018-05-10T07:34:07.650Z,11.21
2018-05-10T07:36:35.616Z,11.28
2018-05-10T07:39:05.650Z,11.33
2018-05-10T07:41:33.174Z,11.31
2018-05-10T07:44:01.340Z,11.29
2018-05-10T07:46:28.822Z,11.29
2018-05-10T07:48:56.356Z,11.29
2018-05-10T07:51:23.865Z,11.30
2018-05-10T07:53:53.684Z,11.32
2018-05-10T07:56:24.564Z,11.34
2018-05-10T07:58:53.289Z,11.38
2018-05-10T08:01:21.078Z,11.41
2018-05-10T08:03:48.573Z,11.44
2018-05-10T08:06:16.073Z,11.45
2018-05-10T08:08:43.576Z,11.47
2018-05-10T08:11:13.451Z,11.49
2018-05-10T08:13:43.541Z,11.53
2018-05-10T08:16:13.575Z,11.58
2018-05-10T08:18:41.101Z,11.64
2018-05-10T08:21:08.574Z,11.68
2018-05-10T08:23:48.126Z,11.74
2018-05-10T08:26:15.642Z,11.86
2018-05-10T08:28:46.314Z,11.92
2018-05-10T08:31:15.565Z,11.99
2018-05-10T08:33:45.608Z,12.05
2018-05-10T08:36:13.133Z,12.04
2018-05-10T08:38:41.626Z,12.03
2018-05-10T08:41:09.114Z,12.05
2018-05-10T08:43:36.626Z,12.05
2018-05-10T08:46:05.319Z,12.06
2018-05-10T08:48:35.246Z,12.05
2018-05-10T08:51:05.160Z,12.09
2018-05-10T08:53:33.300Z,12.16
2018-05-10T08:56:00.806Z,12.17
2018-05-10T08:58:28.305Z,12.18
2018-05-10T09:00:55.786Z,12.22
2018-05-10T09:03:24.548Z,12.29
2018-05-10T09:05:53.319Z,12.35
2018-05-10T09:08:23.377Z,12.40
2018-05-10T09:10:53.439Z,12.46
2018-05-10T09:13:20.938Z,12.53
2018-05-10T09:15:48.472Z,12.59
2018-05-10T09:18:15.954Z,12.60
2018-05-10T09:20:48.184Z,12.64
2018-05-10T09:23:16.700Z,12.60
2018-05-10T09:25:47.677Z,12.63
2018-05-10T09:28:17.707Z,12.62
2018-05-10T09:30:48.046Z,12.64
2018-05-10T09:33:15.532Z,12.66
2018-05-10T09:35:43.048Z,12.70
2018-05-10T09:38:12.546Z,12.71
2018-05-10T09:40:41.203Z,12.73
2018-05-10T09:43:09.363Z,12.72
2018-05-10T09:45:37.106Z,12.74
2018-05-10T09:48:04.598Z,12.79
2018-05-10T09:50:32.090Z,12.89
2018-05-10T09:52:59.579Z,13.00
2018-05-10T09:55:29.614Z,13.05
2018-05-10T09:57:58.778Z,12.99
2018-05-10T10:00:31.670Z,12.86
2018-05-10T10:03:01.734Z,12.90
2018-05-10T10:05:30.278Z,12.95
2018-05-10T10:07:57.748Z,12.96
2018-05-10T10:10:25.267Z,12.97
2018-05-10T10:12:53.543Z,12.98
2018-05-10T10:15:21.227Z,13.01
2018-05-10T10:17:51.605Z,13.07
2018-05-10T10:20:21.596Z,13.14
2018-05-10T10:22:49.098Z,13.22
2018-05-10T10:25:16.634Z,13.32
2018-05-10T10:27:44.105Z,13.45
2018-05-10T10:30:16.452Z,13.55
2018-05-10T10:32:47.963Z,13.54
2018-05-10T10:35:19.970Z,13.54
2018-05-10T10:37:47.462Z,13.53
2018-05-10T10:40:15.032Z,13.53
2018-05-10T10:42:42.461Z,13.52
2018-05-10T10:45:09.951Z,13.52
2018-05-10T10:47:37.460Z,13.54
2018-05-10T10:50:05.037Z,13.55
2018-05-10T10:52:33.781Z,13.54
2018-05-10T10:55:04.615Z,13.47
2018-05-10T10:57:32.123Z,13.49
2018-05-10T10:59:59.706Z,13.54
2018-05-10T11:02:27.113Z,13.51
2018-05-10T11:04:56.712Z,13.52
2018-05-10T11:07:25.326Z,13.53
2018-05-10T11:09:55.634Z,13.60
2018-05-10T11:12:23.111Z,13.67
2018-05-10T11:14:50.619Z,13.71
2018-05-10T11:17:18.116Z,13.79
2018-05-10T11:19:45.598Z,13.72
2018-05-10T11:22:13.138Z,13.72
2018-05-10T11:24:43.695Z,13.75
2018-05-10T11:27:13.833Z,13.83
2018-05-10T11:29:43.532Z,13.85
2018-05-10T11:32:10.996Z,13.85
2018-05-10T11:34:38.499Z,13.86
2018-05-10T11:37:05.999Z,13.91
2018-05-10T11:39:33.505Z,13.94
2018-05-10T11:42:01.347Z,13.99
2018-05-10T11:44:29.082Z,13.99
2018-05-10T11:46:56.575Z,14.01
2018-05-10T11:49:24.072Z,14.11
2018-05-10T11:51:51.558Z,14.11
2018-05-10T11:54:20.317Z,14.21
2018-05-10T12:04:54.582Z,14.63
2018-05-10T12:07:22.072Z,14.55
2018-05-10T12:09:50.484Z,14.58
2018-05-10T12:12:18.879Z,14.57
2018-05-10T12:19:55.920Z,14.85
2018-05-10T12:22:23.421Z,14.93
2018-05-10T12:24:51.710Z,15.05
2018-05-10T12:27:20.110Z,15.19
2018-05-10T12:29:47.716Z,15.18
2018-05-10T12:39:58.614Z,15.27
2018-05-10T12:42:26.120Z,15.25
2018-05-10T12:44:53.622Z,15.28
2018-05-10T12:47:23.628Z,15.35
2018-05-10T12:52:28.954Z,15.62
2018-05-10T12:54:57.496Z,15.64
2018-05-10T12:57:24.979Z,15.49
2018-05-10T12:59:52.469Z,15.44
2018-05-10T13:02:19.995Z,15.60
2018-05-10T13:04:47.510Z,15.71
2018-05-10T13:07:17.550Z,15.82
2018-05-10T13:09:45.592Z,15.82
2018-05-10T13:12:13.469Z,15.85
2018-05-10T13:14:40.958Z,15.77
2018-05-10T13:17:08.464Z,15.78
2018-05-10T13:19:36.458Z,15.87
2018-05-10T13:22:03.950Z,15.97
2018-05-10T13:24:32.583Z,16.11
2018-05-10T13:27:01.325Z,15.96
2018-05-10T13:29:29.153Z,15.80
2018-05-10T13:31:56.661Z,15.79
2018-05-10T13:34:24.136Z,15.83
2018-05-10T13:36:51.648Z,15.80
2018-05-10T13:39:19.154Z,15.85
2018-05-10T13:44:47.548Z,16.00
2018-05-10T13:47:17.787Z,16.02
2018-05-10T13:49:45.152Z,16.11
2018-05-10T13:52:12.655Z,16.18
2018-05-10T13:54:40.159Z,16.16
2018-05-10T13:57:12.786Z,16.18
2018-05-10T13:59:43.653Z,16.27
2018-05-10T14:02:13.707Z,16.29
2018-05-10T14:04:41.210Z,16.03
2018-05-10T14:07:08.722Z,16.02
2018-05-10T14:09:36.215Z,16.13
2018-05-10T14:12:03.727Z,16.22
2018-05-10T14:14:33.615Z,16.20
2018-05-10T14:17:01.176Z,16.23
2018-05-10T14:19:29.427Z,16.32
2018-05-10T14:21:57.358Z,16.29
2018-05-10T14:24:24.770Z,16.24
2018-05-10T14:26:52.250Z,16.31
2018-05-10T14:29:19.743Z,16.39
2018-05-10T14:31:47.793Z,16.45
2018-05-10T14:34:17.849Z,16.55
2018-05-10T14:36:51.863Z,16.59
2018-05-10T14:39:19.859Z,16.72
2018-05-10T14:41:47.361Z,16.79
2018-05-10T14:44:14.842Z,16.74
2018-05-10T14:46:42.367Z,16.78
2018-05-10T14:49:09.860Z,16.78
2018-05-10T14:51:41.186Z,16.73
2018-05-10T14:54:09.860Z,16.82
2018-05-10T14:56:37.377Z,16.90
2018-05-10T14:59:04.872Z,16.88
2018-05-10T15:01:32.410Z,16.78
2018-05-10T15:03:59.906Z,16.65
2018-05-10T15:06:29.280Z,16.68
2018-05-10T15:09:00.535Z,16.56
2018-05-10T15:11:32.550Z,16.48
2018-05-10T15:14:00.034Z,16.61
2018-05-10T15:16:27.522Z,16.73
2018-05-10T15:18:55.038Z,16.72
2018-05-10T15:21:22.522Z,16.71
2018-05-10T15:23:51.762Z,16.80
2018-05-10T15:26:21.800Z,16.80
2018-05-10T15:28:49.343Z,16.90
2018-05-10T15:31:16.850Z,17.12
2018-05-10T15:33:44.337Z,17.08
2018-05-10T15:36:11.834Z,17.11
2018-05-10T15:38:39.323Z,17.01
2018-05-10T15:41:08.598Z,17.07
2018-05-10T15:43:37.008Z,17.02
2018-05-10T15:46:05.142Z,17.03
2018-05-10T15:48:32.723Z,17.28
2018-05-10T15:51:00.198Z,17.39
2018-05-10T15:53:27.686Z,17.50
2018-05-10T15:55:55.206Z,17.53
2018-05-10T15:58:24.971Z,17.66
2018-05-10T16:01:00.330Z,17.70
2018-05-10T16:03:31.914Z,17.82
2018-05-10T16:05:59.451Z,17.84
2018-05-10T16:08:26.926Z,17.92
2018-05-10T16:10:54.429Z,18.14
2018-05-10T16:13:21.959Z,18.35
2018-05-10T16:18:31.796Z,18.90
2018-05-10T16:24:29.054Z,19.33
2018-05-10T16:26:56.553Z,19.30
2018-05-10T16:29:24.029Z,19.32
2018-05-10T16:40:43.483Z,19.60
2018-05-10T16:43:12.353Z,19.41
2018-05-10T16:45:39.934Z,19.38
2018-05-10T16:48:07.539Z,19.24
2018-05-10T16:55:55.950Z,19.38
2018-05-10T16:58:23.504Z,19.57
2018-05-10T17:00:51.016Z,19.80
2018-05-10T17:03:19.431Z,19.92
2018-05-10T17:09:01.879Z,20.05
2018-05-10T17:14:24.758Z,20.18
2018-05-10T17:16:52.276Z,20.26
2018-05-10T17:19:19.750Z,20.36
2018-05-10T17:21:47.263Z,20.34
2018-05-10T17:29:36.479Z,20.14
2018-05-10T17:32:04.018Z,20.10
2018-05-10T17:34:31.499Z,20.12
2018-05-10T17:36:59.002Z,20.07
2018-05-10T17:39:26.489Z,20.08
2018-05-10T17:44:32.122Z,20.16
2018-05-10T17:47:03.839Z,20.12
2018-05-10T17:49:31.341Z,19.96
2018-05-10T17:51:58.817Z,19.84
2018-05-10T17:54:26.357Z,19.78
2018-05-10T17:56:53.881Z,19.85
2018-05-10T18:07:01.203Z,19.74
2018-05-10T18:09:28.687Z,19.70
2018-05-10T18:11:56.231Z,19.66
2018-05-10T18:14:24.709Z,19.59
2018-05-10T18:19:40.053Z,19.46
2018-05-10T18:24:41.186Z,19.57
2018-05-10T18:27:08.710Z,19.49
2018-05-10T18:29:36.205Z,19.46
2018-05-10T18:32:06.008Z,19.49
2018-05-10T18:43:06.732Z,18.19
2018-05-10T18:45:34.218Z,17.80
2018-05-10T18:48:01.718Z,17.50
2018-05-10T18:50:31.568Z,17.22
2018-05-10T18:59:20.631Z,16.31
2018-05-10T19:01:48.176Z,16.14
2018-05-10T19:04:15.739Z,15.92
2018-05-10T19:15:40.400Z,15.23
2018-05-10T19:18:07.897Z,15.10
2018-05-10T19:20:35.400Z,15.00
2018-05-10T19:23:03.058Z,14.89
2018-05-10T19:34:25.609Z,14.47
2018-05-10T19:36:53.101Z,14.40
2018-05-10T19:39:20.609Z,14.34
2018-05-10T19:49:41.121Z,13.96
2018-05-10T19:52:08.719Z,13.90
2018-05-10T19:54:36.195Z,13.86
2018-05-10T19:57:03.807Z,13.82
2018-05-10T19:59:35.930Z,13.77
2018-05-10T20:02:08.907Z,13.73
2018-05-10T20:09:46.848Z,13.60
2018-05-10T20:12:14.363Z,13.56
2018-05-10T20:14:41.947Z,13.53
2018-05-10T20:17:11.956Z,13.50
2018-05-10T20:22:24.278Z,13.43
2018-05-10T20:24:51.856Z,13.39
2018-05-10T20:27:19.331Z,13.37
2018-05-10T20:29:46.835Z,13.36
2018-05-10T20:32:14.385Z,13.34
2018-05-10T20:42:41.299Z,13.29
2018-05-10T20:45:08.803Z,13.27
2018-05-10T20:47:36.311Z,13.25
2018-05-10T20:50:03.859Z,13.23
2018-05-10T20:56:08.975Z,13.19
2018-05-10T20:58:49.687Z,13.16
2018-05-10T21:01:17.307Z,13.12
2018-05-10T21:03:45.028Z,13.07
2018-05-10T21:06:12.465Z,13.03
2018-05-10T21:19:52.659Z,12.77
2018-05-10T21:22:20.214Z,12.72
2018-05-10T21:24:47.716Z,12.67
2018-05-10T21:36:35.542Z,12.45
2018-05-10T21:39:03.080Z,12.41
2018-05-10T21:41:30.572Z,12.36
2018-05-10T21:52:52.160Z,12.13
2018-05-10T21:55:19.675Z,12.07
2018-05-10T21:57:47.176Z,12.03
2018-05-10T22:00:14.711Z,11.98
2018-05-10T22:11:10.979Z,11.74
2018-05-10T22:13:38.479Z,11.70
2018-05-10T22:16:05.950Z,11.64
2018-05-10T22:27:04.608Z,11.46
2018-05-10T22:29:32.112Z,11.42
2018-05-10T22:31:59.602Z,11.37
2018-05-10T22:34:27.126Z,11.34
2018-05-10T22:45:53.083Z,11.15
2018-05-10T22:48:20.598Z,11.12
2018-05-10T22:50:48.109Z,11.11
2018-05-10T23:03:57.649Z,10.99
2018-05-10T23:06:25.148Z,10.95
2018-05-10T23:08:52.621Z,10.93
2018-05-10T23:20:44.679Z,10.81
2018-05-10T23:23:12.182Z,10.77
2018-05-10T23:25:39.669Z,10.74
2018-05-10T23:37:05.042Z,10.60
2018-05-10T23:39:32.525Z,10.58
2018-05-10T23:42:00.035Z,10.57
2018-05-10T23:44:27.530Z,10.55
2018-05-10T23:47:00.022Z,10.53
2018-05-10T23:54:39.955Z,10.43
2018-05-10T23:57:07.519Z,10.41
2018-05-10T23:59:35.039Z,10.39
